Time;durP1;ratioP1;P1;durP2;ratioP2;P2;SDS_P1;SDS_P2;PMS_P1;PMS_P2;Temp;Humidity;BMP_temperature;BMP_pressure;BME280_temperature;BME280_humidity;BME280_pressure;Samples;Min_cycle;Max_cycle;Signal;HPM_P1;HPM_P2
2021/04/22 00:01:01;;;;;;;17.30;5.10;;;7.60;96.00;;;;;;5110681;23;20462;-82
2021/04/22 00:03:03;;;;;;;9.50;5.30;;;7.50;96.30;;;;;;5111123;23;20458;-82
2021/04/22 00:05:20;;;;;;;20.57;5.77;;;7.60;96.10;;;;;;5102098;23;20929;-82
2021/04/22 00:07:23;;;;;;;9.93;5.30;;;7.50;96.40;;;;;;5097539;23;20476;-81
2021/04/22 00:09:25;;;;;;;15.17;5.07;;;7.60;96.30;;;;;;5107000;23;20454;-82
2021/04/22 00:11:27;;;;;;;15.63;4.80;;;7.60;96.10;;;;;;5100334;23;20459;-81
2021/04/22 00:13:30;;;;;;;14.50;5.60;;;7.70;96.10;;;;;;5099640;23;20518;-82
2021/04/22 00:15:34;;;;;;;11.33;5.03;;;7.70;96.10;;;;;;5099423;23;20461;-82
2021/04/22 00:17:36;;;;;;;18.83;5.57;;;7.70;96.10;;;;;;5099250;23;20459;-82
2021/04/22 00:19:38;;;;;;;20.13;6.30;;;7.70;96.10;;;;;;5098582;23;20816;-82
2021/04/22 00:21:40;;;;;;;26.60;5.00;;;7.50;96.40;;;;;;5099366;23;20467;-80
2021/04/22 00:23:43;;;;;;;10.03;4.30;;;7.50;96.60;;;;;;5101538;23;20467;-82
2021/04/22 00:25:45;;;;;;;17.97;5.27;;;7.40;96.80;;;;;;5101574;23;20460;-83
2021/04/22 00:27:48;;;;;;;16.80;5.03;;;7.50;96.80;;;;;;5102312;23;20518;-83
2021/04/22 00:29:49;;;;;;;16.00;5.93;;;7.40;96.80;;;;;;5101390;23;21036;-83
2021/04/22 00:31:51;;;;;;;16.57;5.13;;;7.40;96.70;;;;;;5108599;23;20457;-82
2021/04/22 00:33:54;;;;;;;14.23;5.53;;;7.40;96.50;;;;;;5100982;23;20486;-82
2021/04/22 00:35:55;;;;;;;12.23;5.60;;;7.40;96.70;;;;;;5101083;23;20471;-82
2021/04/22 00:37:57;;;;;;;10.63;4.97;;;7.40;96.60;;;;;;5100471;23;20465;-83
2021/04/22 00:40:00;;;;;;;11.67;4.83;;;7.30;96.80;;;;;;5100506;23;20457;-82
2021/04/22 00:42:03;;;;;;;17.37;6.53;;;7.30;97.10;;;;;;5100007;23;20524;-82
2021/04/22 00:44:08;;;;;;;16.47;5.20;;;7.30;97.20;;;;;;5100576;23;20530;-82
2021/04/22 00:46:10;;;;;;;13.53;4.50;;;7.30;97.10;;;;;;5108571;23;20453;-82
2021/04/22 00:48:13;;;;;;;14.07;5.10;;;7.30;96.80;;;;;;5100881;23;20489;-82
2021/04/22 00:50:18;;;;;;;15.40;4.90;;;7.30;96.70;;;;;;5098777;23;20455;-83
2021/04/22 00:52:21;;;;;;;10.60;4.30;;;7.30;97.10;;;;;;5099161;23;20521;-82
2021/04/22 00:54:23;;;;;;;12.97;5.63;;;7.30;96.70;;;;;;5108415;23;20445;-82
2021/04/22 00:56:26;;;;;;;10.27;4.70;;;7.40;96.50;;;;;;5099420;23;20454;-82
2021/04/22 00:58:50;;;;;;;11.10;5.43;;;7.40;96.30;;;;;;5090379;23;20521;-80
2021/04/22 01:00:54;;;;;;;17.23;6.60;;;7.30;96.40;;;;;;5089876;23;20462;-80
2021/04/22 01:02:57;;;;;;;12.93;6.00;;;7.30;96.20;;;;;;5099637;23;20558;-80
2021/04/22 01:04:59;;;;;;;13.20;4.97;;;7.30;96.30;;;;;;5091449;23;20769;-80
2021/04/22 01:07:01;;;;;;;20.23;4.87;;;7.30;96.40;;;;;;5099672;23;20462;-80
2021/04/22 01:09:05;;;;;;;14.97;5.13;;;7.30;96.20;;;;;;5089909;23;20480;-80
2021/04/22 01:11:07;;;;;;;10.90;4.30;;;7.30;96.10;;;;;;5091514;23;20460;-80
2021/04/22 01:13:10;;;;;;;11.57;4.83;;;7.30;96.00;;;;;;5091411;23;20469;-80
2021/04/22 01:15:16;;;;;;;12.07;4.80;;;7.30;95.90;;;;;;5099404;23;20450;-81
2021/04/22 01:17:17;;;;;;;18.13;5.33;;;7.30;95.90;;;;;;5091857;23;20521;-81
2021/04/22 01:19:19;;;;;;;19.10;6.37;;;7.30;95.80;;;;;;5097422;23;20452;-80
2021/04/22 01:21:25;;;;;;;28.63;6.63;;;7.20;95.90;;;;;;5099290;23;20958;-80
2021/04/22 01:23:27;;;;;;;22.13;6.53;;;7.20;96.30;;;;;;5091536;23;20454;-80
2021/04/22 01:25:31;;;;;;;18.80;5.90;;;7.20;96.30;;;;;;5099147;23;20461;-80
2021/04/22 01:27:34;;;;;;;17.87;5.80;;;7.20;96.40;;;;;;5090042;23;20544;-81
2021/04/22 01:29:37;;;;;;;13.27;5.27;;;7.20;96.30;;;;;;5088857;23;20469;-80
2021/04/22 01:31:39;;;;;;;15.77;5.40;;;7.20;96.20;;;;;;5090840;23;21025;-80
2021/04/22 01:33:42;;;;;;;10.90;4.73;;;7.20;96.10;;;;;;5091278;23;20464;-80
2021/04/22 01:35:46;;;;;;;11.20;5.00;;;7.20;95.80;;;;;;5091119;23;20515;-80
2021/04/22 01:37:49;;;;;;;14.50;4.67;;;7.30;95.70;;;;;;5090124;23;20455;-80
2021/04/22 01:39:51;;;;;;;12.57;5.50;;;7.30;95.60;;;;;;5098080;23;20505;-80
2021/04/22 01:41:53;;;;;;;21.83;6.80;;;7.40;95.50;;;;;;5091081;23;20514;-81
2021/04/22 01:43:55;;;;;;;15.90;5.03;;;7.40;95.30;;;;;;5091265;23;20973;-80
2021/04/22 01:45:57;;;;;;;17.20;5.10;;;7.50;95.20;;;;;;5090709;23;20461;-80
2021/04/22 01:47:59;;;;;;;11.10;4.17;;;7.50;95.10;;;;;;5098206;23;20453;-80
2021/04/22 01:50:01;;;;;;;16.97;5.60;;;7.60;94.90;;;;;;5099474;23;20816;-80
2021/04/22 01:52:03;;;;;;;15.80;5.37;;;7.50;95.00;;;;;;5099025;23;20465;-80
2021/04/22 01:54:07;;;;;;;12.07;4.73;;;7.50;95.20;;;;;;5099495;23;20951;-80
2021/04/22 01:56:09;;;;;;;14.80;4.40;;;7.50;95.40;;;;;;5090846;23;20458;-80
2021/04/22 01:58:13;;;;;;;14.73;5.27;;;7.60;95.20;;;;;;5090888;23;20469;-81
2021/04/22 02:00:19;;;;;;;11.77;5.00;;;7.60;95.10;;;;;;5100057;23;20458;-81
2021/04/22 02:02:21;;;;;;;17.63;5.53;;;7.60;94.80;;;;;;5092543;23;20465;-81
2021/04/22 02:04:23;;;;;;;18.80;5.40;;;7.70;94.60;;;;;;5101586;23;20453;-81
2021/04/22 02:06:25;;;;;;;12.27;4.90;;;7.70;94.50;;;;;;5093745;23;20458;-81
2021/04/22 02:08:27;;;;;;;21.47;7.00;;;7.70;94.70;;;;;;5092356;23;20459;-80
2021/04/22 02:10:30;;;;;;;8.80;4.33;;;7.70;94.70;;;;;;5092624;23;20454;-80
2021/04/22 02:12:32;;;;;;;11.40;4.60;;;7.70;94.70;;;;;;5101783;23;20521;-81
2021/04/22 02:14:34;;;;;;;17.40;5.03;;;7.70;94.90;;;;;;5093825;23;20510;-80
2021/04/22 02:16:37;;;;;;;12.43;5.20;;;7.70;95.00;;;;;;5093265;23;20546;-81
2021/04/22 02:18:39;;;;;;;12.30;4.23;;;7.80;94.80;;;;;;5099677;23;20473;-80
2021/04/22 02:20:42;;;;;;;14.40;5.03;;;7.80;94.70;;;;;;5092741;23;20532;-80
2021/04/22 02:22:45;;;;;;;13.97;4.63;;;7.70;94.80;;;;;;5100702;23;20450;-80
2021/04/22 02:24:47;;;;;;;14.87;5.50;;;7.60;95.00;;;;;;5092795;23;20457;-80
2021/04/22 02:26:49;;;;;;;10.87;4.70;;;7.50;95.20;;;;;;5100980;23;20450;-80
2021/04/22 02:28:51;;;;;;;14.57;5.20;;;7.60;95.10;;;;;;5098779;23;20457;-80
2021/04/22 02:30:53;;;;;;;13.73;4.27;;;7.60;95.10;;;;;;5092222;23;20952;-79
2021/04/22 02:32:56;;;;;;;16.13;5.50;;;7.60;95.10;;;;;;5100002;23;20464;-79
2021/04/22 02:34:57;;;;;;;11.43;4.70;;;7.70;94.80;;;;;;5092028;23;20454;-79
2021/04/22 02:36:59;;;;;;;17.63;6.73;;;7.70;94.70;;;;;;5100985;23;20451;-79
2021/04/22 02:39:04;;;;;;;14.30;5.20;;;7.70;94.40;;;;;;5091393;23;20458;-79
2021/04/22 02:41:32;;;;;;;18.07;5.07;;;7.70;94.20;;;;;;5101371;23;20497;-79
2021/04/22 02:43:36;;;;;;;16.30;4.70;;;7.70;94.00;;;;;;5094277;23;20812;-79
2021/04/22 02:45:41;;;;;;;18.40;5.10;;;7.70;93.60;;;;;;5093651;23;20462;-79
2021/04/22 02:47:43;;;;;;;16.30;5.00;;;7.70;93.30;;;;;;5092495;23;20548;-79
2021/04/22 02:49:45;;;;;;;15.10;4.80;;;7.70;93.20;;;;;;5093419;23;20450;-79
2021/04/22 02:51:47;;;;;;;17.73;4.13;;;7.80;92.90;;;;;;5100280;23;20935;-79
2021/04/22 02:53:49;;;;;;;13.80;5.63;;;7.80;92.80;;;;;;5100623;23;20745;-80
2021/04/22 02:55:51;;;;;;;12.47;4.30;;;7.80;92.70;;;;;;5092492;23;20455;-80
2021/04/22 02:57:58;;;;;;;10.53;4.50;;;7.80;92.50;;;;;;5091127;23;20474;-80
2021/04/22 03:00:01;;;;;;;13.57;4.00;;;7.90;92.30;;;;;;5100946;23;20541;-80
2021/04/22 03:02:03;;;;;;;11.00;5.80;;;7.90;92.30;;;;;;5092734;23;20734;-79
2021/04/22 03:04:06;;;;;;;11.83;4.73;;;7.80;92.60;;;;;;5100283;23;20458;-79
2021/04/22 03:06:08;;;;;;;15.30;4.43;;;7.90;92.60;;;;;;5091922;23;20459;-79
2021/04/22 03:08:10;;;;;;;10.37;4.30;;;7.90;92.50;;;;;;5090458;23;20464;-79
2021/04/22 03:10:14;;;;;;;16.93;3.80;;;7.90;92.50;;;;;;5099268;23;20461;-79
2021/04/22 03:12:16;;;;;;;13.07;5.03;;;7.90;92.70;;;;;;5090473;23;20462;-80
2021/04/22 03:14:18;;;;;;;18.53;4.13;;;7.90;92.90;;;;;;5099856;23;20524;-79
2021/04/22 03:16:22;;;;;;;9.40;4.30;;;7.80;93.20;;;;;;5091855;23;20454;-79
2021/04/22 03:18:24;;;;;;;17.07;4.23;;;7.80;93.40;;;;;;5090914;23;20469;-79
2021/04/22 03:20:26;;;;;;;9.53;4.03;;;7.80;93.60;;;;;;5092301;23;20975;-80
2021/04/22 03:22:28;;;;;;;11.57;3.93;;;7.70;93.80;;;;;;5092112;23;20773;-80
2021/04/22 03:24:30;;;;;;;13.97;4.23;;;7.70;94.00;;;;;;5100184;23;20454;-79
2021/04/22 03:26:32;;;;;;;14.43;4.97;;;7.80;94.20;;;;;;5091645;23;20465;-80
2021/04/22 03:28:34;;;;;;;18.77;4.43;;;7.80;94.20;;;;;;5098558;23;20472;-79
2021/04/22 03:30:36;;;;;;;11.33;3.80;;;7.80;94.20;;;;;;5091256;23;20979;-79
2021/04/22 03:32:40;;;;;;;17.67;5.13;;;7.80;94.20;;;;;;5091397;23;20462;-79
2021/04/22 03:34:42;;;;;;;11.50;4.77;;;7.90;94.00;;;;;;5091840;23;20455;-79
2021/04/22 03:36:44;;;;;;;12.83;5.13;;;7.90;93.90;;;;;;5091368;23;20493;-79
2021/04/22 03:38:45;;;;;;;11.00;3.80;;;7.90;94.10;;;;;;5098527;23;20457;-79
2021/04/22 03:40:48;;;;;;;10.27;4.80;;;7.80;94.40;;;;;;5091215;23;20832;-79
2021/04/22 03:42:50;;;;;;;9.23;4.67;;;7.80;94.60;;;;;;5091925;23;20454;-79
2021/04/22 03:44:53;;;;;;;12.93;3.93;;;7.80;94.50;;;;;;5100037;23;20924;-79
2021/04/22 03:46:54;;;;;;;12.07;3.97;;;7.80;94.60;;;;;;5099657;23;20450;-79
2021/04/22 03:48:57;;;;;;;11.07;4.73;;;7.80;94.90;;;;;;5090432;23;20787;-79
2021/04/22 03:50:59;;;;;;;14.70;4.50;;;7.80;95.00;;;;;;5091260;23;20454;-79
2021/04/22 03:53:01;;;;;;;9.70;4.40;;;7.70;95.30;;;;;;5099960;23;20571;-80
2021/04/22 03:55:05;;;;;;;11.87;4.90;;;7.80;95.30;;;;;;5091502;23;20794;-80
2021/04/22 03:57:07;;;;;;;19.30;4.30;;;7.90;95.00;;;;;;5090915;23;20459;-79
2021/04/22 03:59:10;;;;;;;15.60;6.00;;;7.90;95.10;;;;;;5090316;23;20451;-79
2021/04/22 04:01:12;;;;;;;18.93;7.37;;;7.90;95.40;;;;;;5099519;23;20461;-80
2021/04/22 04:03:14;;;;;;;21.27;7.30;;;8.00;95.60;;;;;;5091705;23;20943;-80
2021/04/22 04:05:17;;;;;;;16.13;5.10;;;8.00;95.40;;;;;;5099610;23;20458;-79
2021/04/22 04:07:19;;;;;;;14.00;3.73;;;8.10;95.50;;;;;;5099895;23;20799;-79
2021/04/22 04:09:21;;;;;;;26.03;7.70;;;7.90;96.40;;;;;;5098644;23;20474;-80
2021/04/22 04:11:23;;;;;;;13.93;4.70;;;7.70;97.60;;;;;;5091602;23;20934;-79
2021/04/22 04:13:25;;;;;;;18.90;4.70;;;7.70;98.00;;;;;;5091709;23;20462;-79
2021/04/22 04:15:27;;;;;;;23.57;5.80;;;7.80;98.20;;;;;;5099364;23;20458;-80
2021/04/22 04:17:29;;;;;;;12.77;4.27;;;7.80;98.10;;;;;;5091128;23;20455;-79
2021/04/22 04:19:31;;;;;;;13.00;4.73;;;7.80;98.20;;;;;;5090637;23;20458;-79
2021/04/22 04:21:34;;;;;;;16.33;4.47;;;7.80;98.20;;;;;;5091718;23;20464;-80
2021/04/22 04:23:36;;;;;;;18.87;5.43;;;7.80;98.30;;;;;;5091980;23;20458;-79
2021/04/22 04:25:38;;;;;;;18.60;5.70;;;7.80;98.30;;;;;;5099442;23;20510;-79
2021/04/22 04:27:40;;;;;;;12.90;4.47;;;7.90;98.00;;;;;;5090726;23;20458;-79
2021/04/22 04:29:42;;;;;;;15.33;4.90;;;7.90;97.90;;;;;;5090284;23;20459;-79
2021/04/22 04:31:44;;;;;;;18.83;5.33;;;7.90;98.00;;;;;;5090323;23;20464;-79
2021/04/22 04:33:47;;;;;;;15.47;4.37;;;7.90;98.20;;;;;;5090683;23;20459;-79
2021/04/22 04:35:49;;;;;;;16.03;4.70;;;8.00;98.30;;;;;;5092091;23;20461;-80
2021/04/22 04:37:51;;;;;;;12.33;4.23;;;7.90;98.30;;;;;;5090849;23;20542;-80
2021/04/22 04:39:53;;;;;;;16.80;4.80;;;8.00;98.30;;;;;;5090586;23;20451;-79
2021/04/22 04:41:55;;;;;;;13.43;4.53;;;8.00;98.30;;;;;;5089548;23;20454;-79
2021/04/22 04:43:57;;;;;;;10.77;4.37;;;8.00;98.30;;;;;;5091594;23;20463;-80
2021/04/22 04:45:59;;;;;;;11.90;4.27;;;8.10;98.30;;;;;;5091399;23;20455;-80
2021/04/22 04:48:01;;;;;;;11.63;5.10;;;8.10;98.30;;;;;;5090336;23;20578;-80
2021/04/22 04:50:03;;;;;;;12.27;4.50;;;8.10;98.30;;;;;;5090899;23;20772;-80
2021/04/22 04:52:05;;;;;;;14.70;4.50;;;8.10;98.30;;;;;;5099581;23;20446;-79
2021/04/22 04:54:09;;;;;;;18.53;7.80;;;8.20;98.30;;;;;;5091449;23;20458;-80
2021/04/22 04:56:11;;;;;;;52.03;22.93;;;8.30;98.30;;;;;;5091259;23;20454;-79
2021/04/22 04:58:12;;;;;;;27.07;10.50;;;8.30;98.30;;;;;;5090122;23;20462;-79
2021/04/22 05:00:17;;;;;;;14.33;6.67;;;8.40;98.30;;;;;;5090730;23;20917;-79
2021/04/22 05:02:19;;;;;;;17.40;5.23;;;8.40;98.30;;;;;;5099149;23;20966;-80
2021/04/22 05:04:21;;;;;;;11.17;5.23;;;8.40;98.30;;;;;;5091367;23;20822;-79
2021/04/22 05:06:23;;;;;;;11.27;4.37;;;8.20;98.30;;;;;;5091012;23;20489;-80
2021/04/22 05:08:25;;;;;;;14.50;4.47;;;8.10;98.30;;;;;;5089666;23;20459;-79
2021/04/22 05:10:27;;;;;;;14.87;5.73;;;8.10;98.30;;;;;;5091329;23;20455;-79
2021/04/22 05:12:29;;;;;;;19.50;6.97;;;8.10;98.30;;;;;;5091220;23;20486;-79
2021/04/22 05:14:31;;;;;;;22.43;10.90;;;8.10;98.30;;;;;;5091246;23;20462;-80
2021/04/22 05:16:33;;;;;;;26.63;10.00;;;8.20;98.30;;;;;;5090649;23;20462;-80
2021/04/22 05:18:35;;;;;;;18.17;5.43;;;8.30;98.30;;;;;;5089438;23;20459;-79
2021/04/22 05:20:37;;;;;;;12.53;4.70;;;8.20;98.30;;;;;;5098792;23;20455;-79
2021/04/22 05:22:39;;;;;;;12.27;4.70;;;8.30;98.30;;;;;;5091709;23;20936;-80
2021/04/22 05:24:41;;;;;;;14.90;4.43;;;8.30;98.30;;;;;;5091769;23;20462;-80
2021/04/22 05:26:44;;;;;;;15.07;4.53;;;8.30;98.30;;;;;;5100199;23;20453;-80
2021/04/22 05:28:46;;;;;;;19.90;8.20;;;8.30;98.30;;;;;;5091032;23;20464;-80
2021/04/22 05:30:49;;;;;;;28.50;10.63;;;8.30;98.30;;;;;;5100454;23;20480;-80
2021/04/22 05:32:51;;;;;;;19.60;7.13;;;8.30;98.30;;;;;;5093152;23;20469;-80
2021/04/22 05:34:53;;;;;;;14.87;4.60;;;8.20;98.30;;;;;;5099932;23;20447;-79
2021/04/22 05:36:55;;;;;;;10.73;4.00;;;8.20;98.30;;;;;;5091080;23;20469;-80
2021/04/22 05:38:57;;;;;;;17.93;4.60;;;8.20;98.30;;;;;;5088541;23;20593;-79
2021/04/22 05:40:59;;;;;;;15.43;4.73;;;8.20;98.30;;;;;;5091676;23;20462;-80
2021/04/22 05:43:01;;;;;;;12.43;4.63;;;8.20;98.30;;;;;;5099574;23;20982;-79
2021/04/22 05:45:05;;;;;;;15.23;4.87;;;8.20;98.30;;;;;;5099286;23;20461;-79
2021/04/22 05:47:07;;;;;;;13.70;4.13;;;8.20;98.30;;;;;;5099213;23;20453;-79
2021/04/22 05:49:09;;;;;;;10.07;3.87;;;8.00;98.30;;;;;;5089004;23;20455;-81
2021/04/22 05:51:11;;;;;;;18.93;6.50;;;8.00;98.30;;;;;;5097980;23;20457;-80
2021/04/22 05:53:13;;;;;;;18.00;4.60;;;8.20;98.30;;;;;;5097853;23;20455;-79
2021/04/22 05:55:16;;;;;;;16.23;4.00;;;8.20;98.30;;;;;;5088576;23;20659;-79
2021/04/22 05:57:18;;;;;;;12.40;5.43;;;8.20;98.30;;;;;;5089610;23;20469;-79
2021/04/22 05:59:21;;;;;;;13.23;4.60;;;8.30;98.30;;;;;;5089302;23;20521;-80
2021/04/22 06:01:22;;;;;;;11.57;4.40;;;8.30;98.30;;;;;;5089497;23;20462;-79
2021/04/22 06:03:24;;;;;;;12.87;4.37;;;8.30;98.10;;;;;;5090831;23;20825;-80
2021/04/22 06:05:27;;;;;;;16.03;5.33;;;8.40;97.20;;;;;;5090787;23;20451;-79
2021/04/22 06:07:29;;;;;;;12.37;3.93;;;8.30;97.20;;;;;;5098326;23;20451;-80
2021/04/22 06:09:31;;;;;;;12.00;4.67;;;8.50;96.80;;;;;;5097671;23;20529;-79
2021/04/22 06:11:33;;;;;;;16.30;4.73;;;8.50;97.00;;;;;;5099399;23;20515;-80
2021/04/22 06:13:35;;;;;;;18.70;5.13;;;8.50;97.50;;;;;;5091179;23;20482;-80
2021/04/22 06:15:38;;;;;;;7.97;4.13;;;8.40;97.50;;;;;;5091414;23;20451;-79
2021/04/22 06:17:39;;;;;;;15.97;5.60;;;8.40;97.70;;;;;;5090944;23;20745;-80
2021/04/22 06:19:42;;;;;;;12.30;4.60;;;8.40;98.30;;;;;;5099379;23;20529;-80
2021/04/22 06:21:44;;;;;;;13.90;5.40;;;8.40;98.30;;;;;;5091939;23;20485;-80
2021/04/22 06:23:46;;;;;;;16.60;4.63;;;8.40;98.30;;;;;;5092367;23;20482;-80
2021/04/22 06:25:48;;;;;;;9.63;4.53;;;8.50;98.30;;;;;;5099487;23;20940;-79
2021/04/22 06:27:50;;;;;;;9.63;4.50;;;8.60;98.30;;;;;;5098485;23;20925;-80
2021/04/22 06:29:52;;;;;;;9.60;4.77;;;8.60;98.30;;;;;;5098635;23;20455;-80
2021/04/22 06:31:56;;;;;;;18.87;5.00;;;8.60;98.30;;;;;;5091170;23;20455;-80
2021/04/22 06:33:58;;;;;;;10.17;4.07;;;8.70;98.30;;;;;;5099298;23;20459;-80
2021/04/22 06:36:00;;;;;;;13.40;5.03;;;8.70;98.30;;;;;;5091282;23;20461;-80
2021/04/22 06:38:02;;;;;;;14.97;4.20;;;8.90;98.30;;;;;;5099251;23;20493;-81
2021/04/22 06:40:09;;;;;;;11.47;4.20;;;9.00;98.30;;;;;;5100272;23;20478;-80
2021/04/22 06:42:11;;;;;;;15.60;4.30;;;9.00;98.30;;;;;;5092465;23;20429;-79
2021/04/22 06:44:15;;;;;;;16.17;4.47;;;9.10;98.30;;;;;;5099626;23;20496;-80
2021/04/22 06:46:17;;;;;;;15.07;4.70;;;9.10;98.30;;;;;;5092197;23;20432;-80
2021/04/22 06:48:20;;;;;;;14.83;4.10;;;9.00;98.30;;;;;;5101194;23;20529;-81
2021/04/22 06:50:24;;;;;;;10.00;4.20;;;9.00;98.30;;;;;;5101742;23;20483;-82
2021/04/22 06:52:25;;;;;;;15.63;4.83;;;9.00;98.30;;;;;;5101823;23;20526;-81
2021/04/22 06:54:27;;;;;;;19.23;5.40;;;9.10;98.30;;;;;;5102299;23;20775;-82
2021/04/22 06:56:29;;;;;;;18.97;4.90;;;9.20;98.00;;;;;;5084434;23;20554;-81
2021/04/22 06:58:32;;;;;;;15.83;4.53;;;9.50;97.70;;;;;;5085477;23;20795;-82
2021/04/22 07:00:36;;;;;;;16.93;4.83;;;9.60;96.60;;;;;;5099900;23;21071;-82
2021/04/22 07:02:38;;;;;;;14.60;5.07;;;9.60;95.90;;;;;;5100573;23;20534;-81
2021/04/22 07:04:41;;;;;;;17.00;4.63;;;9.50;95.50;;;;;;5101420;23;20526;-81
2021/04/22 07:06:44;;;;;;;13.77;4.47;;;9.40;94.80;;;;;;5092883;23;20454;-80
2021/04/22 07:08:47;;;;;;;10.23;4.20;;;9.20;94.20;;;;;;5090406;23;20455;-81
2021/04/22 07:10:49;;;;;;;16.30;5.07;;;9.20;93.70;;;;;;5094329;23;20435;-81
2021/04/22 07:12:52;;;;;;;15.37;4.00;;;9.10;94.10;;;;;;5103877;23;20451;-80
2021/04/22 07:14:54;;;;;;;14.73;4.40;;;9.20;94.20;;;;;;5092879;23;20454;-79
2021/04/22 07:16:55;;;;;;;10.27;5.37;;;9.30;93.50;;;;;;5093503;23;20451;-80
2021/04/22 07:18:57;;;;;;;19.00;5.17;;;9.30;93.90;;;;;;5101858;23;20451;-80
2021/04/22 07:21:00;;;;;;;27.90;9.97;;;9.30;93.70;;;;;;5102090;23;20461;-79
2021/04/22 07:23:03;;;;;;;27.73;10.03;;;9.40;93.70;;;;;;5093954;23;20482;-79
2021/04/22 07:25:06;;;;;;;14.27;5.77;;;9.60;92.50;;;;;;5102712;23;20436;-79
2021/04/22 07:27:10;;;;;;;15.37;5.13;;;9.70;91.30;;;;;;5091961;23;20459;-81
2021/04/22 07:29:12;;;;;;;9.43;4.13;;;9.70;90.40;;;;;;5092665;23;20455;-81
2021/04/22 07:31:14;;;;;;;13.70;4.30;;;9.70;90.40;;;;;;5101031;23;20451;-81
2021/04/22 07:33:21;;;;;;;8.90;3.70;;;9.70;90.20;;;;;;5101313;23;20753;-81
2021/04/22 07:35:23;;;;;;;32.27;11.50;;;9.70;89.20;;;;;;5100350;23;20904;-80
2021/04/22 07:37:26;;;;;;;32.30;12.73;;;9.80;88.50;;;;;;5092253;23;20458;-81
2021/04/22 07:39:28;;;;;;;18.93;9.27;;;9.90;88.80;;;;;;5101314;23;20446;-82
2021/04/22 07:41:30;;;;;;;10.17;4.90;;;10.20;88.40;;;;;;5102349;23;20447;-81
2021/04/22 07:43:32;;;;;;;11.23;5.93;;;10.50;87.50;;;;;;5092952;23;20443;-81
2021/04/22 07:45:35;;;;;;;14.10;4.40;;;10.60;86.90;;;;;;5102019;23;20846;-81
2021/04/22 07:47:37;;;;;;;20.80;4.80;;;10.70;86.40;;;;;;5102250;23;20546;-79
2021/04/22 07:49:42;;;;;;;9.67;3.40;;;10.60;84.90;;;;;;5094765;23;20956;-82
2021/04/22 07:51:52;;;;;;;9.77;4.10;;;10.50;85.30;;;;;;5094920;23;20447;-81
2021/04/22 07:53:55;;;;;;;10.03;4.53;;;10.40;86.10;;;;;;5103095;23;20938;-82
2021/04/22 07:56:01;;;;;;;13.53;4.63;;;10.40;86.10;;;;;;5094461;23;20437;-82
2021/04/22 07:58:03;;;;;;;54.30;21.07;;;10.40;85.90;;;;;;5092336;23;20470;-81
2021/04/22 08:00:06;;;;;;;18.07;8.17;;;10.30;86.40;;;;;;5102453;23;20505;-81
2021/04/22 08:02:13;;;;;;;15.17;6.30;;;10.40;86.40;;;;;;5101538;23;20519;-81
2021/04/22 08:04:15;;;;;;;11.07;4.53;;;10.30;86.20;;;;;;5101964;23;20784;-81
2021/04/22 08:06:17;;;;;;;10.93;3.80;;;10.30;86.50;;;;;;5102207;23;20847;-81
2021/04/22 08:08:19;;;;;;;13.03;4.87;;;10.20;86.60;;;;;;5102438;23;20425;-80
2021/04/22 08:10:24;;;;;;;16.07;5.10;;;10.20;86.50;;;;;;5102609;23;20941;-81
2021/04/22 08:12:26;;;;;;;10.67;4.43;;;10.30;87.10;;;;;;5102382;23;20966;-82
2021/04/22 08:14:28;;;;;;;11.60;4.13;;;10.30;86.70;;;;;;5094648;23;20465;-81
2021/04/22 08:16:30;;;;;;;14.47;4.13;;;10.40;86.50;;;;;;5093890;23;20439;-81
2021/04/22 08:18:33;;;;;;;14.40;4.30;;;10.40;85.90;;;;;;5101580;23;20417;-81
2021/04/22 08:20:35;;;;;;;14.10;4.53;;;10.30;86.20;;;;;;5100493;23;20463;-81
2021/04/22 08:22:38;;;;;;;13.50;4.37;;;10.20;86.00;;;;;;5100641;23;20433;-79
2021/04/22 08:24:40;;;;;;;12.87;5.47;;;10.10;86.30;;;;;;5101040;23;20424;-81
2021/04/22 08:26:44;;;;;;;10.40;4.73;;;10.00;86.70;;;;;;5102133;23;20747;-80
2021/04/22 08:28:47;;;;;;;15.70;4.50;;;10.00;86.70;;;;;;5092395;23;20429;-81
2021/04/22 08:30:52;;;;;;;14.47;5.27;;;10.10;86.80;;;;;;5101243;23;20457;-81
2021/04/22 08:32:54;;;;;;;22.63;9.30;;;10.20;86.80;;;;;;5092458;23;20934;-80
2021/04/22 08:34:56;;;;;;;26.00;13.33;;;10.30;86.50;;;;;;5100944;23;20481;-80
2021/04/22 08:36:58;;;;;;;12.07;4.50;;;10.40;86.50;;;;;;5092693;23;20459;-79
2021/04/22 08:39:00;;;;;;;13.00;4.23;;;10.40;86.40;;;;;;5112287;23;20447;-80
2021/04/22 08:41:03;;;;;;;10.90;4.83;;;10.50;85.80;;;;;;5104545;23;20457;-79
2021/04/22 08:43:10;;;;;;;15.13;4.70;;;10.60;85.60;;;;;;5114944;23;20422;-79
2021/04/22 08:45:14;;;;;;;20.70;5.70;;;10.70;85.70;;;;;;5106937;23;20433;-79
2021/04/22 08:47:17;;;;;;;13.43;4.87;;;10.90;85.30;;;;;;5106081;23;20429;-79
2021/04/22 08:49:19;;;;;;;11.50;4.27;;;10.70;84.80;;;;;;5113971;23;20454;-81
2021/04/22 08:51:21;;;;;;;15.67;4.80;;;10.50;85.40;;;;;;5113984;23;20417;-81
2021/04/22 08:53:25;;;;;;;12.90;5.30;;;10.50;85.80;;;;;;5108027;23;20460;-81
2021/04/22 08:55:30;;;;;;;13.27;5.90;;;10.60;85.60;;;;;;5103264;23;20447;-82
2021/04/22 08:57:32;;;;;;;15.27;5.20;;;10.60;85.40;;;;;;5102723;23;20463;-81
2021/04/22 08:59:34;;;;;;;13.43;4.77;;;10.60;85.30;;;;;;5101933;23;20962;-81
2021/04/22 09:01:37;;;;;;;17.20;5.37;;;10.70;85.10;;;;;;5096293;23;20462;-81
2021/04/22 09:03:41;;;;;;;10.97;5.07;;;10.70;84.20;;;;;;5103154;23;20684;-82
2021/04/22 09:05:45;;;;;;;12.73;5.10;;;10.90;83.90;;;;;;5094773;23;20430;-81
2021/04/22 09:07:47;;;;;;;14.30;4.70;;;11.10;83.20;;;;;;5103245;23;20534;-81
2021/04/22 09:09:49;;;;;;;14.60;5.23;;;11.20;82.80;;;;;;5094548;23;20709;-81
2021/04/22 09:11:51;;;;;;;15.50;5.27;;;11.20;83.20;;;;;;5094734;23;20451;-80
2021/04/22 09:13:53;;;;;;;19.40;5.17;;;11.20;83.30;;;;;;5102764;23;20457;-79
2021/04/22 09:16:07;;;;;;;15.20;5.80;;;11.20;83.00;;;;;;5095180;23;21329;-81
2021/04/22 09:18:12;;;;;;;10.07;4.70;;;11.20;83.00;;;;;;5102435;23;20481;-81
2021/04/22 09:20:14;;;;;;;12.97;5.70;;;11.10;83.00;;;;;;5102528;23;20461;-81
2021/04/22 09:22:16;;;;;;;7.53;5.17;;;11.10;83.20;;;;;;5103264;23;20421;-81
2021/04/22 09:24:20;;;;;;;17.40;6.03;;;11.10;83.70;;;;;;5095008;23;20971;-81
2021/04/22 09:26:22;;;;;;;11.33;4.40;;;11.20;82.70;;;;;;5094821;23;20425;-82
2021/04/22 09:28:34;;;;;;;17.93;5.47;;;11.40;82.20;;;;;;5094940;23;20454;-81
2021/04/22 09:30:40;;;;;;;9.30;4.50;;;11.30;81.40;;;;;;5096661;23;20755;-81
2021/04/22 09:32:43;;;;;;;8.60;4.73;;;11.30;81.40;;;;;;5104215;23;20497;-81
2021/04/22 09:34:47;;;;;;;10.80;4.97;;;11.30;81.70;;;;;;5103215;23;20466;-81
2021/04/22 09:36:52;;;;;;;8.83;4.50;;;11.20;81.40;;;;;;5102538;23;20721;-79
2021/04/22 09:38:54;;;;;;;12.10;5.50;;;11.00;81.00;;;;;;5102319;23;20450;-80
2021/04/22 09:41:12;;;;;;;14.60;4.40;;;11.00;81.80;;;;;;5094069;23;20509;-81
2021/04/22 09:43:14;;;;;;;14.60;5.30;;;11.00;82.10;;;;;;5094660;23;20473;-81
2021/04/22 09:45:19;;;;;;;11.87;4.83;;;10.90;83.30;;;;;;5102687;23;20421;-81
2021/04/22 09:47:25;;;;;;;10.30;5.13;;;11.10;83.80;;;;;;5094418;23;20454;-81
2021/04/22 09:49:28;;;;;;;7.83;5.43;;;11.20;83.50;;;;;;5102135;23;20821;-81
2021/04/22 09:51:33;;;;;;;10.10;5.57;;;11.30;82.20;;;;;;5094813;23;20433;-82
2021/04/22 09:53:35;;;;;;;10.70;5.90;;;11.40;80.50;;;;;;5102615;23;20490;-81
2021/04/22 09:55:37;;;;;;;11.13;4.37;;;11.40;80.10;;;;;;5092044;23;20455;-81
2021/04/22 09:57:39;;;;;;;11.63;5.20;;;11.50;80.60;;;;;;5093704;23;20467;-82
2021/04/22 09:59:46;;;;;;;11.73;5.30;;;11.90;81.00;;;;;;5094903;23;20455;-80
2021/04/22 10:02:00;;;;;;;15.73;5.33;;;12.00;80.20;;;;;;5102709;23;20742;-81
2021/04/22 10:04:03;;;;;;;13.47;5.70;;;11.90;80.50;;;;;;5094335;23;20462;-81
2021/04/22 10:06:06;;;;;;;12.63;4.73;;;11.80;80.70;;;;;;5094423;23;20976;-82
2021/04/22 10:08:09;;;;;;;9.10;4.80;;;11.90;80.40;;;;;;5094516;23;20461;-80
2021/04/22 10:10:20;;;;;;;8.87;5.83;;;12.20;79.80;;;;;;5094724;23;20461;-80
2021/04/22 10:12:24;;;;;;;14.80;5.50;;;12.30;78.90;;;;;;5094635;23;20461;-81
2021/04/22 10:14:31;;;;;;;9.23;4.87;;;12.30;79.20;;;;;;5093556;23;20828;-81
2021/04/22 10:16:34;;;;;;;15.23;5.07;;;12.10;79.30;;;;;;5101919;23;20455;-82
2021/04/22 10:18:38;;;;;;;8.33;5.43;;;12.20;79.50;;;;;;5101630;23;20450;-82
2021/04/22 10:20:40;;;;;;;10.97;5.33;;;12.00;78.70;;;;;;5093366;23;20455;-81
2021/04/22 10:22:47;;;;;;;8.80;4.83;;;12.10;78.20;;;;;;5101982;23;20451;-81
2021/04/22 10:24:55;;;;;;;9.17;4.53;;;12.30;77.90;;;;;;5102104;23;20443;-81
2021/04/22 10:26:59;;;;;;;9.83;4.73;;;12.80;76.90;;;;;;5095121;23;20458;-82
2021/04/22 10:29:01;;;;;;;8.87;5.77;;;12.80;76.90;;;;;;5103376;23;20443;-80
2021/04/22 10:31:03;;;;;;;14.00;5.40;;;12.70;77.70;;;;;;5095957;23;20462;-80
2021/04/22 10:33:06;;;;;;;12.33;5.63;;;12.50;78.20;;;;;;5103938;23;20983;-81
2021/04/22 10:35:11;;;;;;;12.90;5.10;;;12.10;79.40;;;;;;5102872;23;20763;-81
2021/04/22 10:37:13;;;;;;;11.17;5.03;;;11.90;80.50;;;;;;5103283;23;20427;-80
2021/04/22 10:39:16;;;;;;;16.13;4.80;;;11.80;80.90;;;;;;5103571;23;20447;-81